Senyomaru — JI3557 — position and weather

sailwx.info

Track history (hours):
 
Tides and Currents Weather Stations Pressure Air Temp Water Temp Dewpoint Dewpoint Depression Visibility Wind Speed Wind Dir Waves Ship Positions

Senyomaru

Last reported at 2016-May-10 11:20 UTC. Time now 2016-May-27 06:35 UTC.
Position N 34°36' E 134°55'.
Warning: this ship's position is 16 days out of date.

Length 69 m; draft 4 m.

Type: Tanker. MMSI: 431300188.

Date/timePositionNaut miles runAvg speedWind from/ knotsBaromVisibWave heightAir tempDewpointWater temp
2016-May-10 11:20N 34°36' E 134°55'911.9
2016-May-10 10:33N 34°36' E 135°06'1212.0
2016-May-10 09:33N 34°34' E 135°20'4 4.4
2016-May-10 08:33N 34°33' E 135°26'0 0.0
2016-May-10 02:30N 34°33' E 135°25'2 2.3
2016-May-10 01:27N 34°34' E 135°23'0 0.0
2016-May-10 00:30N 34°34' E 135°23'0 0.0
2016-May-09 23:12N 34°34' E 135°23'0 0.0
2016-May-09 22:33N 34°34' E 135°23'0 0.0
2016-May-09 21:32N 34°34' E 135°23'8 7.7
2016-May-09 20:33N 34°34' E 135°13'20 0.5
2016-May-08 06:30N 34°34' E 134°50'8 8.9
2016-May-08 05:33N 34°38' E 134°59'8 8.4
2016-May-08 04:33N 34°35' E 135°09'1212.1
2016-May-08 03:33N 34°33' E 135°23'2 0.3
2016-May-07 22:16N 34°33' E 135°26'2 0.2
2016-May-07 11:31N 34°34' E 135°23'0 0.1
2016-May-07 10:31N 34°34' E 135°23'0 0.0
2016-May-07 09:25N 34°34' E 135°23'0 0.0
2016-May-07 08:31N 34°34' E 135°23'0 0.0
2016-May-07 07:31N 34°34' E 135°23'0 0.0
2016-May-07 06:13N 34°34' E 135°23'3 4.2
2016-May-07 05:33N 34°34' E 135°20'1313.2
2016-May-07 04:33N 34°35' E 135°04'  
Track history (hours):
 
Tides and Currents Weather Stations Pressure Air Temp Water Temp Dewpoint Dewpoint Depression Visibility Wind Speed Wind Dir Waves Ship Positions

Senyomaru

Last reported at 2016-May-10 11:20 UTC. Time now 2016-May-27 06:35 UTC.
Position N 34°36' E 134°55'.
Warning: this ship's position is 16 days out of date.

Length 69 m; draft 4 m.

Type: Tanker. MMSI: 431300188.

Date/timePositionNaut miles runAvg speedWind from/ knotsBaromVisibWave heightAir tempDewpointWater temp
2016-May-10 11:20N 34°36' E 134°55'911.9
2016-May-10 10:33N 34°36' E 135°06'1212.0
2016-May-10 09:33N 34°34' E 135°20'4 4.4
2016-May-10 08:33N 34°33' E 135°26'0 0.0
2016-May-10 02:30N 34°33' E 135°25'2 2.3
2016-May-10 01:27N 34°34' E 135°23'0 0.0
2016-May-10 00:30N 34°34' E 135°23'0 0.0
2016-May-09 23:12N 34°34' E 135°23'0 0.0
2016-May-09 22:33N 34°34' E 135°23'0 0.0
2016-May-09 21:32N 34°34' E 135°23'8 7.7
2016-May-09 20:33N 34°34' E 135°13'20 0.5
2016-May-08 06:30N 34°34' E 134°50'8 8.9
2016-May-08 05:33N 34°38' E 134°59'8 8.4
2016-May-08 04:33N 34°35' E 135°09'1212.1
2016-May-08 03:33N 34°33' E 135°23'2 0.3
2016-May-07 22:16N 34°33' E 135°26'2 0.2
2016-May-07 11:31N 34°34' E 135°23'0 0.1
2016-May-07 10:31N 34°34' E 135°23'0 0.0
2016-May-07 09:25N 34°34' E 135°23'0 0.0
2016-May-07 08:31N 34°34' E 135°23'0 0.0
2016-May-07 07:31N 34°34' E 135°23'0 0.0
2016-May-07 06:13N 34°34' E 135°23'3 4.2
2016-May-07 05:33N 34°34' E 135°20'1313.2
2016-May-07 04:33N 34°35' E 135°04'  

Dump ship's entire track history